Sherman Oaks, California
Current Conditions -  °F | °C
As of 3:51 PM on Sunday 21 Dec 2014 (Local Time) from KVNY Reporting Station
Clear Clear  
Wind Chill: 68°   Ceiling: Unl
Heat Index: 68°   Visibility: 10mi
Dew Point: 49°   Wind: 29mph
Humidity: 50%   Direction: 350°N
Pressure: 30.03"   Gusts: 41mph
Location:  34.15°N, 118.45°W
Report Text: KVNY 212351Z 35025G36KT 10SM CLR 20/09 A3003 RMK AO2 PK WND 35037/2319 SLP165 T02000094 10233 20150 55001
Loading
Personal Weather Stations






























Interactive Weather Map New forecast layout! Learn more

10-Day Weather Forecast

Advertisements
Track Severe Weather on mobile